首页
METAR-TAF:

METAR-TAF

机场 :

Wiarton, 安大略省, 加拿大

纬度: 44-45N, 经度: 081-06W, 海拔: 222米

当前天气观测

该预报发布于38分钟前的20:00 UTC
风速10节,风向西转西南,有时为16节阵风
温度 1°C
湿度 93%
气压 1002 hPa
能見度: 3.2公里
阴天层高于1600英尺
小雪

METAR: CYVV 262000Z 25010G16KT 2SM -SN OVC016 01/00 A2960 RMK SN2SC6 VIS VRB 1-3 SLP033

时间: 15:38 (20:38 UTC)

预报

该预报发布于1小时和0分钟前的19:38 UTC
预报有效从26日的 20点(UTC)到 26日的 24点(UTC)
风速7节,风向西
能見度: 6.4公里
阴天层高于1500英尺
小雪
短暂存在
从 26日的 20点(UTC)到 26日的 24点(UTC)
能見度: 1.6公里
阴天层高于700英尺
小雪
成为
从 26日的 21点(UTC)到 26日的 23点(UTC)
风速10节,风向西,有时为20节阵风

TAF: CYVV 261938Z 2620/2624 26007KT 4SM -SN OVC015 TEMPO 2620/2624 1SM -SN OVC007 BECMG 2621/2623 28010G20KT RMK NXT FCST WILL BE ISSUED AT 271145Z

超过4000个机场的气象观测和天气预报(METAR&TAF报告)。

可查询的气象台以黄色和红色小点在地图上表示。

将鼠标移到小点上方,可查看气象台名称。

然后点击查看天气观测和预报。

如需切换地图:点击带黑十字的绿色按钮放大地图;点击带横线的绿色按钮缩小地图;或者点击绿色箭头查看邻近地区的地图。


METAR-TAF: